Time;durP1;ratioP1;P1;durP2;ratioP2;P2;SDS_P1;SDS_P2;PMS_P1;PMS_P2;Temp;Humidity;BMP_temperature;BMP_pressure;BME280_temperature;BME280_humidity;BME280_pressure;Samples;Min_cycle;Max_cycle;Signal;HPM_P1;HPM_P2
2022/06/24 00:00:38;;;;;;;11.27;5.03;;;21.00;99.90;;;;;;5091517;28;20467;-47
2022/06/24 00:03:05;;;;;;;8.40;5.30;;;21.00;99.90;;;;;;5091428;28;20427;-47
2022/06/24 00:05:35;;;;;;;7.40;5.80;;;21.00;99.90;;;;;;5090865;28;20439;-48
2022/06/24 00:08:02;;;;;;;10.93;5.60;;;21.00;99.90;;;;;;5091362;28;20463;-47
2022/06/24 00:10:32;;;;;;;9.10;5.67;;;21.00;99.90;;;;;;5091161;28;20459;-47
2022/06/24 00:12:59;;;;;;;9.20;5.50;;;21.00;99.90;;;;;;5095892;28;20483;-48
2022/06/24 00:15:30;;;;;;;10.00;5.40;;;21.00;99.90;;;;;;5095673;28;20500;-50
2022/06/24 00:17:57;;;;;;;6.90;5.87;;;21.00;99.90;;;;;;5095388;28;20522;-49
2022/06/24 00:20:25;;;;;;;7.50;5.20;;;21.00;99.90;;;;;;5095068;28;20532;-46
2022/06/24 00:22:53;;;;;;;8.70;5.90;;;20.90;99.90;;;;;;5095746;28;20465;-47
2022/06/24 00:25:22;;;;;;;7.10;5.97;;;20.70;99.90;;;;;;5095413;28;20530;-47
2022/06/24 00:28:05;;;;;;;9.93;5.27;;;20.50;99.90;;;;;;5095292;28;20496;-46
2022/06/24 00:30:38;;;;;;;8.33;5.60;;;20.50;99.90;;;;;;5093010;28;20870;-48
2022/06/24 00:33:12;;;;;;;6.90;5.73;;;20.50;99.90;;;;;;5095480;28;20569;-47
2022/06/24 00:35:41;;;;;;;17.57;6.60;;;20.50;99.90;;;;;;5095125;28;20484;-47
2022/06/24 00:38:25;;;;;;;10.60;6.10;;;20.30;99.90;;;;;;5095049;28;20471;-50
2022/06/24 00:40:54;;;;;;;7.43;5.67;;;20.50;99.90;;;;;;5094974;28;20490;-47
2022/06/24 00:43:27;;;;;;;7.70;5.00;;;20.50;99.90;;;;;;5095108;28;20474;-46
2022/06/24 00:46:03;;;;;;;9.07;5.97;;;20.50;99.90;;;;;;5094877;28;20461;-49
2022/06/24 00:48:31;;;;;;;8.73;5.63;;;20.60;99.90;;;;;;5094689;28;21191;-46
2022/06/24 00:50:58;;;;;;;8.57;5.53;;;20.70;99.90;;;;;;5094468;28;21032;-47
2022/06/24 00:53:25;;;;;;;9.50;5.20;;;20.70;99.90;;;;;;5094837;28;20517;-47
2022/06/24 00:55:53;;;;;;;12.60;5.70;;;20.80;99.90;;;;;;5094745;28;20481;-47
2022/06/24 00:58:20;;;;;;;12.20;6.00;;;20.80;99.90;;;;;;5094046;28;20547;-47
2022/06/24 01:00:49;;;;;;;7.97;6.57;;;20.80;99.90;;;;;;5094180;28;21088;-47
2022/06/24 01:03:17;;;;;;;9.43;5.90;;;20.90;99.90;;;;;;5094488;28;20431;-48
2022/06/24 01:05:45;;;;;;;16.10;6.73;;;20.90;99.90;;;;;;5094216;28;20522;-47
2022/06/24 01:08:14;;;;;;;7.67;6.10;;;20.90;99.90;;;;;;5094460;28;20488;-50
2022/06/24 01:10:42;;;;;;;10.13;6.33;;;20.90;99.90;;;;;;5094025;28;20464;-47
2022/06/24 01:13:10;;;;;;;8.50;6.30;;;20.90;99.90;;;;;;5094475;28;20482;-47
2022/06/24 01:15:37;;;;;;;9.10;5.90;;;20.80;99.90;;;;;;5094545;28;20478;-47
2022/06/24 01:18:04;;;;;;;15.47;6.50;;;20.80;99.90;;;;;;5094227;28;20439;-47
2022/06/24 01:20:33;;;;;;;8.70;5.50;;;20.80;99.90;;;;;;5093887;28;20964;-47
2022/06/24 01:23:02;;;;;;;5.53;5.03;;;20.80;99.90;;;;;;5093944;28;20479;-48
2022/06/24 01:25:31;;;;;;;8.77;5.27;;;20.80;99.90;;;;;;5094558;28;20439;-47
2022/06/24 01:27:59;;;;;;;9.73;5.53;;;20.90;99.90;;;;;;5094053;28;20950;-47
2022/06/24 01:30:26;;;;;;;7.30;5.20;;;20.80;99.90;;;;;;5093887;28;20471;-47
2022/06/24 01:32:53;;;;;;;8.87;5.50;;;20.90;99.90;;;;;;5094582;28;20474;-47
2022/06/24 01:35:20;;;;;;;6.97;6.03;;;20.90;99.90;;;;;;5093749;28;20556;-47
2022/06/24 01:37:48;;;;;;;8.77;5.00;;;20.90;99.90;;;;;;5093843;28;20963;-47
2022/06/24 01:40:16;;;;;;;8.67;5.67;;;20.90;99.90;;;;;;5093866;28;20534;-48
2022/06/24 01:42:43;;;;;;;8.60;6.17;;;21.00;99.90;;;;;;5093719;28;20882;-47
2022/06/24 01:45:11;;;;;;;9.43;5.73;;;20.90;99.90;;;;;;5093865;28;20459;-51
2022/06/24 01:47:38;;;;;;;9.40;4.83;;;20.70;99.90;;;;;;5093697;28;20813;-46
2022/06/24 01:50:06;;;;;;;8.20;4.87;;;20.70;99.90;;;;;;5093327;28;20463;-47
2022/06/24 01:52:33;;;;;;;8.53;4.73;;;20.70;99.90;;;;;;5093581;28;20526;-48
2022/06/24 01:55:00;;;;;;;10.73;5.23;;;20.80;99.90;;;;;;5093616;28;20481;-47
2022/06/24 01:57:28;;;;;;;9.10;5.33;;;20.80;99.90;;;;;;5093287;28;20471;-52
2022/06/24 01:59:58;;;;;;;10.10;5.00;;;20.80;99.90;;;;;;5092755;28;20875;-49
2022/06/24 02:02:26;;;;;;;8.30;5.00;;;20.80;99.90;;;;;;5093395;28;20457;-47
2022/06/24 02:04:54;;;;;;;6.33;5.70;;;20.80;99.90;;;;;;5092894;28;20753;-47
2022/06/24 02:07:22;;;;;;;5.90;5.30;;;20.80;99.90;;;;;;5093293;28;20447;-47
2022/06/24 02:15:25;;;;;;;10.67;5.33;;;20.80;99.90;;;;;;5081747;28;20483;-47
2022/06/24 02:17:52;;;;;;;7.33;5.23;;;20.80;99.90;;;;;;5092777;28;20495;-50
2022/06/24 02:20:19;;;;;;;9.87;5.70;;;20.70;99.90;;;;;;5092684;28;20538;-48
2022/06/24 02:22:46;;;;;;;9.83;6.20;;;20.60;99.90;;;;;;5093116;28;20612;-47
2022/06/24 02:25:14;;;;;;;14.80;7.37;;;20.70;99.90;;;;;;5092499;28;20899;-48
2022/06/24 02:27:42;;;;;;;12.33;5.97;;;20.70;99.90;;;;;;5092957;28;20833;-50
2022/06/24 02:30:10;;;;;;;7.70;5.23;;;20.70;99.90;;;;;;5092330;28;20507;-48
2022/06/24 02:32:37;;;;;;;7.40;4.90;;;20.60;99.90;;;;;;5093071;28;20514;-47
2022/06/24 02:35:04;;;;;;;9.90;5.03;;;20.50;99.90;;;;;;5092160;28;20965;-47
2022/06/24 02:37:31;;;;;;;7.07;4.33;;;20.50;99.90;;;;;;5092852;28;20443;-51
2022/06/24 02:40:45;;;;;;;6.23;4.80;;;20.60;99.90;;;;;;5092833;28;20459;-49
2022/06/24 02:42:47;;;;;;;10.23;4.87;;;20.60;99.90;;;;;;5092706;28;20806;-47
2022/06/24 02:45:14;;;;;;;11.13;5.57;;;20.60;99.90;;;;;;5092554;28;20816;-49
2022/06/24 02:47:40;;;;;;;8.97;5.87;;;20.60;99.90;;;;;;5092681;28;20475;-47
2022/06/24 02:50:08;;;;;;;8.97;5.77;;;20.50;99.90;;;;;;5092167;28;21014;-47
2022/06/24 02:52:35;;;;;;;10.57;6.40;;;20.50;99.90;;;;;;5092629;28;20439;-47
2022/06/24 02:55:02;;;;;;;7.40;5.60;;;20.50;99.90;;;;;;5092363;28;20994;-47
2022/06/24 02:57:29;;;;;;;7.30;5.60;;;20.50;99.90;;;;;;5092128;28;20473;-49
2022/06/24 02:59:57;;;;;;;8.67;5.60;;;20.50;99.90;;;;;;5092120;28;21023;-47
2022/06/24 03:02:24;;;;;;;6.30;5.20;;;20.40;99.90;;;;;;5092149;28;20948;-47
2022/06/24 03:04:51;;;;;;;7.27;5.40;;;20.50;99.90;;;;;;5091953;28;20484;-50
2022/06/24 03:07:18;;;;;;;8.83;5.30;;;20.40;99.90;;;;;;5092218;28;20435;-47
2022/06/24 03:09:45;;;;;;;7.70;5.07;;;20.30;99.90;;;;;;5091870;28;20546;-47
2022/06/24 03:12:12;;;;;;;8.63;4.70;;;20.40;99.90;;;;;;5091938;28;20482;-47
2022/06/24 03:14:39;;;;;;;8.73;5.70;;;20.40;99.90;;;;;;5091836;28;21048;-48
2022/06/24 03:17:07;;;;;;;8.70;5.73;;;20.40;99.90;;;;;;5092300;28;20471;-47
2022/06/24 03:19:34;;;;;;;7.50;4.90;;;20.50;99.90;;;;;;5091749;28;20482;-51
2022/06/24 03:22:01;;;;;;;8.20;6.20;;;20.50;99.90;;;;;;5092096;28;20522;-47
2022/06/24 03:24:27;;;;;;;9.80;5.67;;;20.40;99.90;;;;;;5092186;28;20501;-47
2022/06/24 03:26:54;;;;;;;6.57;5.03;;;20.40;99.90;;;;;;5091787;28;20526;-50
2022/06/24 03:29:21;;;;;;;10.40;5.30;;;20.40;99.90;;;;;;5092020;28;20439;-46
2022/06/24 03:31:48;;;;;;;9.63;5.60;;;20.20;99.90;;;;;;5131404;22;20492;-47
2022/06/24 03:34:16;;;;;;;7.53;5.40;;;20.20;99.90;;;;;;5071443;28;20562;-47
2022/06/24 03:36:43;;;;;;;6.87;5.13;;;20.20;99.90;;;;;;5071850;28;20441;-47
2022/06/24 03:39:10;;;;;;;10.87;5.50;;;20.30;99.90;;;;;;5071152;28;20893;-47
2022/06/24 03:41:37;;;;;;;6.83;5.83;;;20.40;99.90;;;;;;5071261;28;20463;-49
2022/06/24 03:44:04;;;;;;;7.17;6.33;;;20.40;99.90;;;;;;5071515;28;20519;-48
2022/06/24 03:46:31;;;;;;;12.60;7.40;;;20.20;99.90;;;;;;5070490;28;20925;-48
2022/06/24 03:48:58;;;;;;;6.83;6.00;;;20.20;99.90;;;;;;5071794;28;20561;-47
2022/06/24 03:51:26;;;;;;;6.80;5.53;;;20.20;99.90;;;;;;5071697;28;20488;-47
2022/06/24 03:53:53;;;;;;;8.47;5.60;;;20.10;99.90;;;;;;5071518;28;20986;-47
2022/06/24 03:56:20;;;;;;;9.13;6.03;;;20.20;99.90;;;;;;5071164;28;20483;-48
2022/06/24 03:58:47;;;;;;;10.93;5.43;;;20.10;99.90;;;;;;5071030;28;20494;-47
2022/06/24 04:01:14;;;;;;;13.33;6.77;;;20.00;99.90;;;;;;5071276;28;20500;-50
2022/06/24 04:03:41;;;;;;;10.77;5.90;;;20.10;99.90;;;;;;5071116;28;20440;-49
2022/06/24 04:06:08;;;;;;;7.80;5.83;;;20.10;99.90;;;;;;5070868;28;20436;-47
2022/06/24 04:08:36;;;;;;;10.33;5.70;;;20.20;99.90;;;;;;5070995;28;20472;-49
2022/06/24 04:11:10;;;;;;;7.10;6.20;;;20.30;99.90;;;;;;5071034;28;20499;-49
2022/06/24 04:13:37;;;;;;;7.33;6.40;;;20.40;99.90;;;;;;5071058;28;20531;-48
2022/06/24 04:16:04;;;;;;;10.03;5.80;;;20.40;99.90;;;;;;5070973;28;20511;-47
2022/06/24 04:18:31;;;;;;;18.03;11.87;;;20.40;99.90;;;;;;5071266;28;20502;-47
2022/06/24 04:20:58;;;;;;;8.13;6.87;;;20.40;99.90;;;;;;5070341;28;20465;-49
2022/06/24 04:23:25;;;;;;;9.90;6.50;;;20.40;99.90;;;;;;5071055;28;20929;-47
2022/06/24 04:25:54;;;;;;;9.30;7.50;;;20.40;99.90;;;;;;5071239;28;20944;-47
2022/06/24 04:28:22;;;;;;;9.50;5.90;;;20.50;99.90;;;;;;5071097;28;20471;-52
2022/06/24 04:30:49;;;;;;;9.60;6.80;;;20.40;99.90;;;;;;5070689;28;20527;-47
2022/06/24 04:33:16;;;;;;;8.73;7.00;;;20.40;99.90;;;;;;5070949;28;20475;-48
2022/06/24 04:35:43;;;;;;;10.10;6.33;;;20.40;99.90;;;;;;5070671;28;20533;-49
2022/06/24 04:38:09;;;;;;;9.37;7.13;;;20.40;99.90;;;;;;5071192;28;20476;-48
2022/06/24 04:40:36;;;;;;;8.67;7.03;;;20.50;99.90;;;;;;5070886;28;20464;-47
2022/06/24 04:43:05;;;;;;;10.67;7.40;;;20.50;99.90;;;;;;5070878;28;20479;-47
2022/06/24 04:45:32;;;;;;;11.17;6.90;;;20.50;99.90;;;;;;5071070;28;20447;-48
2022/06/24 04:47:59;;;;;;;8.00;6.70;;;20.40;99.90;;;;;;5070781;28;20452;-48
2022/06/24 04:50:26;;;;;;;8.00;6.73;;;20.30;99.90;;;;;;5070742;28;20460;-49
2022/06/24 04:52:53;;;;;;;13.80;6.90;;;20.30;99.90;;;;;;5070885;28;20496;-47
2022/06/24 04:55:20;;;;;;;9.70;6.53;;;20.30;99.90;;;;;;5070850;28;20563;-47
2022/06/24 04:57:47;;;;;;;10.40;6.50;;;20.40;99.90;;;;;;5072459;28;20484;-48
2022/06/24 05:00:17;;;;;;;8.03;7.23;;;20.40;99.90;;;;;;5074024;28;20456;-49
2022/06/24 05:02:44;;;;;;;9.50;7.70;;;20.40;99.90;;;;;;5074178;28;20448;-47
2022/06/24 05:05:11;;;;;;;8.27;7.20;;;20.50;99.90;;;;;;5073936;28;20972;-47
2022/06/24 05:07:39;;;;;;;11.20;8.40;;;20.50;99.90;;;;;;5074302;28;20527;-48
2022/06/24 05:10:08;;;;;;;8.63;7.27;;;20.40;99.90;;;;;;5073910;28;20480;-47
2022/06/24 05:12:35;;;;;;;11.90;7.37;;;20.20;99.90;;;;;;5074018;28;20440;-49
2022/06/24 05:15:02;;;;;;;12.93;7.33;;;20.20;99.90;;;;;;5074085;28;20472;-48
2022/06/24 05:17:30;;;;;;;11.60;8.60;;;20.10;99.90;;;;;;5074040;28;21026;-49
2022/06/24 05:19:57;;;;;;;8.53;6.83;;;20.10;99.90;;;;;;5073697;28;20447;-50
2022/06/24 05:22:24;;;;;;;7.27;6.50;;;20.10;99.90;;;;;;5074198;28;20976;-49
2022/06/24 05:24:51;;;;;;;7.87;6.57;;;20.10;99.90;;;;;;5073785;28;20444;-47
2022/06/24 05:27:19;;;;;;;7.77;5.37;;;20.00;99.90;;;;;;5073771;28;20527;-48
2022/06/24 05:29:46;;;;;;;8.53;6.70;;;19.90;99.90;;;;;;5073910;28;20622;-47
2022/06/24 05:32:13;;;;;;;10.57;6.57;;;20.10;99.90;;;;;;5073615;28;20917;-47
2022/06/24 05:34:41;;;;;;;10.27;6.57;;;20.20;99.90;;;;;;5073729;28;20472;-47
2022/06/24 05:37:08;;;;;;;12.30;6.87;;;20.30;99.90;;;;;;5073720;28;21017;-48
2022/06/24 05:39:35;;;;;;;10.33;6.70;;;20.20;99.90;;;;;;5072989;28;20949;-49
2022/06/24 05:42:02;;;;;;;6.13;5.33;;;20.10;99.90;;;;;;5073635;28;20513;-47
2022/06/24 05:44:29;;;;;;;8.03;5.70;;;20.10;99.90;;;;;;5073294;28;20503;-51
2022/06/24 05:46:56;;;;;;;7.60;5.47;;;20.10;99.90;;;;;;5073623;28;20503;-49
2022/06/24 05:49:22;;;;;;;7.70;6.37;;;20.20;99.90;;;;;;5073105;28;20531;-47
2022/06/24 05:51:51;;;;;;;8.57;5.77;;;20.20;99.90;;;;;;5073194;28;20496;-48
2022/06/24 05:57:02;;;;;;;8.93;5.93;;;20.20;99.90;;;;;;5073490;28;20420;-47
2022/06/24 05:59:29;;;;;;;6.77;5.90;;;20.20;99.90;;;;;;5072843;28;20436;-46
2022/06/24 06:01:56;;;;;;;7.23;5.80;;;20.20;99.90;;;;;;5072957;28;20536;-49
2022/06/24 06:04:23;;;;;;;9.03;6.50;;;20.10;99.90;;;;;;5072789;28;20479;-47
2022/06/24 06:06:52;;;;;;;10.10;6.33;;;20.20;99.90;;;;;;5073357;28;20535;-47
2022/06/24 06:09:19;;;;;;;12.80;7.70;;;20.30;99.90;;;;;;5071912;28;20542;-48
2022/06/24 06:11:46;;;;;;;8.07;6.17;;;20.40;99.90;;;;;;5073030;28;20530;-47
2022/06/24 06:14:13;;;;;;;7.90;5.73;;;20.50;99.90;;;;;;5073111;28;20967;-48
2022/06/24 06:16:40;;;;;;;8.80;5.37;;;20.50;99.90;;;;;;5072779;28;20472;-49
2022/06/24 06:19:07;;;;;;;5.60;4.57;;;20.50;99.90;;;;;;5072602;28;20448;-49
2022/06/24 06:21:34;;;;;;;7.00;4.80;;;20.50;99.90;;;;;;5072727;28;20547;-48
2022/06/24 06:24:02;;;;;;;6.70;4.13;;;20.50;99.90;;;;;;5072879;28;20523;-47
2022/06/24 06:26:29;;;;;;;7.47;4.27;;;20.40;99.90;;;;;;5072797;28;20436;-47
2022/06/24 06:28:56;;;;;;;9.23;4.00;;;20.40;99.90;;;;;;5072424;28;20436;-47
2022/06/24 06:31:23;;;;;;;7.13;4.40;;;20.30;99.90;;;;;;5072897;28;20521;-48
2022/06/24 06:33:50;;;;;;;10.00;4.87;;;20.20;99.90;;;;;;5072542;28;20470;-49
2022/06/24 06:36:17;;;;;;;6.87;4.50;;;20.30;99.90;;;;;;5072398;28;20480;-48
2022/06/24 06:38:44;;;;;;;8.57;4.67;;;20.10;99.90;;;;;;5072300;28;20925;-47
2022/06/24 06:41:12;;;;;;;5.00;4.27;;;20.20;99.90;;;;;;5072066;28;20551;-49
2022/06/24 06:43:39;;;;;;;6.63;5.00;;;20.20;99.90;;;;;;5072418;28;20903;-47
2022/06/24 06:46:09;;;;;;;5.57;4.93;;;20.30;99.90;;;;;;5072161;28;20524;-47
2022/06/24 06:48:36;;;;;;;6.30;5.43;;;20.20;99.90;;;;;;5072145;28;20445;-47
2022/06/24 06:51:03;;;;;;;6.63;4.50;;;20.30;99.90;;;;;;5072018;28;20981;-47
2022/06/24 06:53:30;;;;;;;7.40;4.70;;;20.30;99.90;;;;;;5072250;28;20487;-48
2022/06/24 06:55:57;;;;;;;5.70;4.80;;;20.20;99.90;;;;;;5072192;28;20508;-47
2022/06/24 06:58:25;;;;;;;7.63;5.30;;;20.30;99.90;;;;;;5071737;28;20888;-47
2022/06/24 07:00:52;;;;;;;5.60;5.10;;;20.40;99.90;;;;;;5071822;28;20469;-47
2022/06/24 07:03:19;;;;;;;5.33;4.83;;;20.40;99.90;;;;;;5072248;28;20451;-47
2022/06/24 07:05:46;;;;;;;5.80;4.83;;;20.40;99.90;;;;;;5071838;28;20493;-51
2022/06/24 07:08:14;;;;;;;6.50;4.57;;;20.40;99.90;;;;;;5071947;28;20472;-47
2022/06/24 07:10:41;;;;;;;6.67;4.67;;;20.30;99.90;;;;;;5071159;28;20540;-49
2022/06/24 07:13:08;;;;;;;5.60;4.70;;;20.30;99.90;;;;;;5072053;28;20532;-50
2022/06/24 07:15:37;;;;;;;5.57;4.20;;;20.20;99.90;;;;;;5071965;28;20508;-47
2022/06/24 07:18:05;;;;;;;6.10;4.67;;;20.20;99.90;;;;;;5071773;28;20472;-47
2022/06/24 07:20:33;;;;;;;5.27;4.00;;;20.10;99.90;;;;;;5071103;28;20461;-47
2022/06/24 07:23:00;;;;;;;8.20;4.80;;;20.20;99.90;;;;;;5071515;28;20531;-48
2022/06/24 07:25:27;;;;;;;5.80;4.67;;;20.10;99.90;;;;;;5071806;28;20499;-50
2022/06/24 07:27:54;;;;;;;6.50;4.37;;;20.10;99.90;;;;;;5071600;28;20527;-47
2022/06/24 07:30:21;;;;;;;7.57;4.60;;;20.20;99.90;;;;;;5071273;28;20479;-50
2022/06/24 07:32:49;;;;;;;5.30;3.87;;;20.20;99.90;;;;;;5071892;28;20523;-48
2022/06/24 07:35:16;;;;;;;4.97;4.43;;;20.20;99.90;;;;;;5071463;28;20563;-47
2022/06/24 07:37:43;;;;;;;6.00;4.80;;;20.30;99.90;;;;;;5071497;28;20946;-48
2022/06/24 07:40:11;;;;;;;8.13;5.10;;;20.30;99.90;;;;;;5071345;28;20464;-48
2022/06/24 07:42:38;;;;;;;6.40;4.30;;;20.40;99.90;;;;;;5071648;28;20472;-49
2022/06/24 07:45:06;;;;;;;6.97;4.70;;;20.30;99.90;;;;;;5071709;28;20436;-49
2022/06/24 07:47:35;;;;;;;4.80;3.77;;;20.20;99.90;;;;;;5071938;28;20487;-47
2022/06/24 07:50:03;;;;;;;6.00;4.37;;;20.20;99.90;;;;;;5070884;28;20513;-47
2022/06/24 07:52:30;;;;;;;6.80;5.00;;;20.10;99.90;;;;;;5071482;28;20937;-47
2022/06/24 07:57:38;;;;;;;6.70;4.57;;;20.10;99.90;;;;;;5070340;28;20472;-48
2022/06/24 08:00:06;;;;;;;4.83;3.90;;;20.20;99.90;;;;;;5071150;28;20735;-47
2022/06/24 08:02:33;;;;;;;5.83;4.23;;;20.20;99.90;;;;;;5071313;28;20483;-50
2022/06/24 08:05:00;;;;;;;5.10;3.77;;;20.30;99.90;;;;;;5070985;28;20472;-48
2022/06/24 08:07:29;;;;;;;6.23;4.40;;;20.30;99.90;;;;;;5071507;28;20436;-47
2022/06/24 08:09:56;;;;;;;5.73;4.17;;;20.30;99.90;;;;;;5071126;28;20433;-49
2022/06/24 08:12:23;;;;;;;6.63;4.60;;;20.30;99.90;;;;;;5071274;28;20440;-48
2022/06/24 08:14:50;;;;;;;6.40;4.30;;;20.30;99.90;;;;;;5071047;28;20444;-47
2022/06/24 08:17:17;;;;;;;9.80;5.03;;;20.40;99.90;;;;;;5071269;28;20508;-47
2022/06/24 08:19:44;;;;;;;5.50;4.80;;;20.40;99.90;;;;;;5070881;28;20817;-48
2022/06/24 08:22:11;;;;;;;5.80;4.80;;;20.50;99.90;;;;;;5070960;28;20871;-47
2022/06/24 08:24:40;;;;;;;7.30;4.07;;;20.60;99.90;;;;;;5071152;28;20436;-48
2022/06/24 08:27:07;;;;;;;8.00;5.20;;;20.70;99.90;;;;;;5071081;28;20440;-47
2022/06/24 08:29:34;;;;;;;7.67;4.93;;;20.70;99.90;;;;;;5070784;28;20871;-48
2022/06/24 08:32:01;;;;;;;6.93;3.90;;;20.70;99.90;;;;;;5071911;28;20471;-51
2022/06/24 08:34:28;;;;;;;4.83;2.97;;;20.70;99.90;;;;;;5074948;28;20448;-48
2022/06/24 08:36:55;;;;;;;7.20;3.00;;;20.70;99.90;;;;;;5075323;28;20472;-48
2022/06/24 08:39:22;;;;;;;8.00;3.50;;;20.70;99.90;;;;;;5074513;28;20487;-49
2022/06/24 08:41:56;;;;;;;4.57;3.07;;;20.80;99.90;;;;;;5074518;28;20464;-47
2022/06/24 08:44:23;;;;;;;5.00;3.30;;;20.90;99.90;;;;;;5074717;28;20479;-48
2022/06/24 08:46:51;;;;;;;4.77;2.73;;;20.90;99.90;;;;;;5074937;28;20523;-49
2022/06/24 08:49:18;;;;;;;4.60;2.70;;;21.00;99.90;;;;;;5074336;28;20498;-50
2022/06/24 08:51:47;;;;;;;4.27;3.13;;;21.10;99.90;;;;;;5074713;28;20551;-48
2022/06/24 08:54:17;;;;;;;5.60;4.00;;;21.20;99.90;;;;;;5074497;28;20444;-48
2022/06/24 08:56:44;;;;;;;5.70;3.70;;;21.20;99.90;;;;;;5074970;28;20570;-48
2022/06/24 08:59:13;;;;;;;7.90;3.30;;;21.30;99.90;;;;;;5073893;28;20514;-49
2022/06/24 09:01:41;;;;;;;5.50;3.83;;;21.50;99.90;;;;;;5073874;28;20504;-48
2022/06/24 09:04:08;;;;;;;4.80;2.77;;;21.60;99.90;;;;;;5074357;28;20820;-48
2022/06/24 09:06:39;;;;;;;6.00;3.50;;;22.00;99.90;;;;;;5073902;28;20929;-49
2022/06/24 09:09:06;;;;;;;5.63;3.40;;;22.20;99.90;;;;;;5074113;28;20444;-47
2022/06/24 09:11:37;;;;;;;5.17;2.70;;;22.30;99.90;;;;;;5074208;28;20648;-48
2022/06/24 09:14:04;;;;;;;8.30;2.90;;;22.40;99.90;;;;;;5074220;28;20933;-49
2022/06/24 09:16:36;;;;;;;4.10;3.20;;;22.50;99.90;;;;;;5073874;28;20476;-48
2022/06/24 09:19:05;;;;;;;3.93;2.47;;;22.50;99.90;;;;;;5073615;28;20436;-47
2022/06/24 09:21:38;;;;;;;16.60;3.80;;;22.60;99.90;;;;;;5073942;28;20987;-47
2022/06/24 09:24:05;;;;;;;4.20;2.27;;;22.80;99.90;;;;;;5074158;28;20929;-48
2022/06/24 09:26:35;;;;;;;3.10;2.80;;;22.90;99.90;;;;;;5073794;28;20473;-51
2022/06/24 09:29:04;;;;;;;6.27;3.90;;;23.00;99.90;;;;;;5073642;28;20494;-48
2022/06/24 09:31:34;;;;;;;4.77;2.90;;;23.00;99.90;;;;;;5142224;22;20482;-47
2022/06/24 09:34:09;;;;;;;5.77;3.50;;;23.30;99.90;;;;;;5093948;28;20516;-46
2022/06/24 09:36:38;;;;;;;4.50;2.93;;;23.30;99.90;;;;;;5093837;28;20507;-47
2022/06/24 09:39:07;;;;;;;5.33;2.87;;;23.30;99.90;;;;;;5093670;28;20440;-46
2022/06/24 09:41:43;;;;;;;6.20;2.50;;;23.40;99.90;;;;;;5093880;28;20999;-47
2022/06/24 09:44:11;;;;;;;7.33;2.20;;;23.60;99.90;;;;;;5093692;28;20454;-47
2022/06/24 09:46:40;;;;;;;8.17;2.93;;;23.70;99.90;;;;;;5093822;28;20446;-47
2022/06/24 09:49:09;;;;;;;3.63;2.57;;;23.90;99.90;;;;;;5093405;28;20446;-49
2022/06/24 09:51:36;;;;;;;6.27;2.37;;;23.90;99.90;;;;;;5093580;28;20991;-50
2022/06/24 09:54:04;;;;;;;3.60;1.70;;;23.60;99.90;;;;;;5093647;28;20447;-47
2022/06/24 09:56:32;;;;;;;4.20;2.53;;;23.60;99.90;;;;;;5093899;28;20478;-47
2022/06/24 10:01:47;;;;;;;3.03;2.07;;;23.90;99.90;;;;;;5093309;28;20438;-47
2022/06/24 10:04:17;;;;;;;8.80;2.13;;;23.90;99.90;;;;;;5092879;28;20439;-44
2022/06/24 10:06:46;;;;;;;6.50;2.23;;;24.00;99.90;;;;;;5093461;28;20916;-46
2022/06/24 10:09:14;;;;;;;6.13;2.30;;;24.10;99.90;;;;;;5093294;28;20869;-47
2022/06/24 10:11:43;;;;;;;4.77;2.87;;;24.00;99.90;;;;;;5093385;28;20491;-47
2022/06/24 10:14:12;;;;;;;5.03;2.10;;;23.90;99.90;;;;;;5093186;28;20448;-47
2022/06/24 10:16:41;;;;;;;3.27;2.17;;;24.10;99.90;;;;;;5093019;28;20566;-46
2022/06/24 10:19:12;;;;;;;4.90;1.77;;;24.10;99.90;;;;;;5093165;28;20436;-48
2022/06/24 10:21:40;;;;;;;3.27;1.90;;;23.90;99.90;;;;;;5093027;28;20456;-47
2022/06/24 10:24:17;;;;;;;5.33;2.57;;;23.90;99.90;;;;;;5093393;28;20465;-47
2022/06/24 10:26:46;;;;;;;4.60;1.87;;;24.10;99.90;;;;;;5093142;28;21012;-47
2022/06/24 10:29:19;;;;;;;4.50;2.23;;;24.20;99.90;;;;;;5092839;28;21139;-47
2022/06/24 10:32:09;;;;;;;5.53;1.90;;;24.40;99.90;;;;;;5092738;28;20981;-48
2022/06/24 10:34:45;;;;;;;4.47;2.20;;;24.50;99.90;;;;;;5072685;28;20447;-47
2022/06/24 10:37:26;;;;;;;4.93;2.33;;;24.60;99.90;;;;;;5092645;28;20755;-48
2022/06/24 10:39:55;;;;;;;4.60;2.80;;;24.60;99.90;;;;;;5092764;28;20521;-47
2022/06/24 10:42:24;;;;;;;3.37;2.40;;;24.60;99.90;;;;;;5093010;28;20542;-47
2022/06/24 10:45:09;;;;;;;5.20;2.10;;;24.60;99.90;;;;;;5092755;28;20447;-47
2022/06/24 10:47:40;;;;;;;3.33;2.07;;;24.60;99.90;;;;;;5092646;28;20862;-47
2022/06/24 10:50:20;;;;;;;2.97;1.73;;;24.70;99.90;;;;;;5092103;28;20435;-50
2022/06/24 10:53:04;;;;;;;3.23;1.83;;;24.70;99.90;;;;;;5092283;28;20929;-47
2022/06/24 10:55:35;;;;;;;4.87;2.07;;;24.60;99.90;;;;;;5091845;28;20496;-47
2022/06/24 10:58:04;;;;;;;7.23;2.23;;;24.60;99.90;;;;;;5091865;28;21070;-48
2022/06/24 11:00:51;;;;;;;2.50;2.03;;;24.60;99.90;;;;;;5092082;28;20439;-47
2022/06/24 11:03:39;;;;;;;4.30;1.70;;;24.60;99.90;;;;;;5092590;28;20451;-47
2022/06/24 11:06:09;;;;;;;5.73;2.30;;;24.70;99.90;;;;;;5091775;28;20443;-47
2022/06/24 11:08:38;;;;;;;6.93;1.90;;;24.80;99.90;;;;;;5091969;28;20443;-47
2022/06/24 11:11:05;;;;;;;3.47;2.00;;;24.70;99.90;;;;;;5092219;28;20991;-47
2022/06/24 11:13:32;;;;;;;5.67;1.73;;;24.80;99.90;;;;;;5092365;28;20443;-47
2022/06/24 11:16:00;;;;;;;4.03;2.03;;;24.80;99.90;;;;;;5092186;28;20530;-46
2022/06/24 11:18:29;;;;;;;6.50;2.33;;;25.00;99.90;;;;;;5091926;28;20566;-49
2022/06/24 11:20:59;;;;;;;3.10;1.90;;;25.00;99.90;;;;;;5091778;28;20835;-47
2022/06/24 11:23:29;;;;;;;3.10;2.23;;;25.00;99.90;;;;;;5092197;28;20804;-47
2022/06/24 11:26:01;;;;;;;3.43;2.10;;;25.00;99.90;;;;;;5091808;28;20450;-47
2022/06/24 11:28:29;;;;;;;6.43;2.23;;;25.00;99.90;;;;;;5092115;28;20435;-47
2022/06/24 11:30:57;;;;;;;5.23;2.20;;;25.00;99.90;;;;;;5091576;28;20471;-51
2022/06/24 11:33:24;;;;;;;6.10;2.17;;;25.00;99.90;;;;;;5092180;28;20967;-47
2022/06/24 11:35:52;;;;;;;3.10;1.70;;;24.90;99.90;;;;;;5092113;28;20482;-47
2022/06/24 11:38:21;;;;;;;3.53;2.20;;;24.80;99.90;;;;;;5091813;28;20544;-47
2022/06/24 11:40:50;;;;;;;5.20;2.10;;;24.70;99.90;;;;;;5091448;28;20464;-47
2022/06/24 11:43:18;;;;;;;4.00;1.87;;;24.60;99.90;;;;;;5091765;28;20435;-47
2022/06/24 11:45:47;;;;;;;5.77;2.70;;;24.70;99.90;;;;;;5091599;28;20486;-47
2022/06/24 11:48:20;;;;;;;3.10;2.00;;;24.70;99.90;;;;;;5091657;28;20518;-47
2022/06/24 11:50:48;;;;;;;4.37;2.00;;;24.80;99.90;;;;;;5091363;28;20458;-47
2022/06/24 11:53:15;;;;;;;5.20;2.57;;;24.80;99.90;;;;;;5091641;28;20482;-47
2022/06/24 11:55:43;;;;;;;4.57;2.30;;;24.80;99.90;;;;;;5091480;28;20443;-47
2022/06/24 11:58:12;;;;;;;3.27;2.07;;;24.80;99.90;;;;;;5091321;28;20544;-47
2022/06/24 12:00:40;;;;;;;4.10;1.80;;;24.80;99.90;;;;;;5091417;28;20527;-47
2022/06/24 12:03:09;;;;;;;3.37;2.23;;;24.90;99.90;;;;;;5091208;28;20479;-48
2022/06/24 12:05:40;;;;;;;5.70;2.40;;;24.90;99.90;;;;;;5090956;28;20444;-49
2022/06/24 12:08:08;;;;;;;5.87;2.37;;;24.80;99.90;;;;;;5094345;28;20819;-47
2022/06/24 12:10:35;;;;;;;4.60;2.27;;;24.80;99.90;;;;;;5094921;28;20526;-48
2022/06/24 12:13:06;;;;;;;3.73;1.97;;;24.80;99.90;;;;;;5095473;28;20944;-46
2022/06/24 12:15:53;;;;;;;5.37;2.33;;;24.80;99.90;;;;;;5095510;28;20527;-47
2022/06/24 12:18:23;;;;;;;4.50;2.30;;;24.80;99.90;;;;;;5095266;28;20483;-47
2022/06/24 12:20:57;;;;;;;4.53;2.10;;;24.90;99.90;;;;;;5094836;28;20463;-47
2022/06/24 12:23:25;;;;;;;4.10;2.53;;;24.80;99.90;;;;;;5095361;28;20560;-46
2022/06/24 12:25:53;;;;;;;4.73;2.30;;;24.80;99.90;;;;;;5095349;28;20436;-47
2022/06/24 12:28:21;;;;;;;7.73;2.90;;;24.70;99.90;;;;;;5095008;28;20439;-51
2022/06/24 12:31:05;;;;;;;4.53;2.70;;;24.60;99.90;;;;;;5094670;28;20471;-48
2022/06/24 12:33:33;;;;;;;6.17;2.43;;;24.40;99.90;;;;;;5092261;28;20474;-49
2022/06/24 12:36:12;;;;;;;2.90;1.87;;;24.30;99.90;;;;;;5094802;28;20923;-46
2022/06/24 12:38:58;;;;;;;4.67;2.47;;;24.40;99.90;;;;;;5093810;28;20481;-47
2022/06/24 12:41:25;;;;;;;3.20;2.20;;;24.40;99.90;;;;;;5094768;28;20879;-47
2022/06/24 12:43:54;;;;;;;16.33;5.17;;;24.40;99.90;;;;;;5094716;28;20966;-50
2022/06/24 12:46:23;;;;;;;5.43;2.27;;;24.50;99.90;;;;;;5094898;28;20443;-49
2022/06/24 12:51:40;;;;;;;7.20;2.83;;;24.50;99.90;;;;;;5094558;28;20441;-48
2022/06/24 12:54:07;;;;;;;4.53;2.03;;;24.50;99.90;;;;;;5094592;28;20793;-48
2022/06/24 12:56:34;;;;;;;3.10;1.90;;;24.50;99.90;;;;;;5094472;28;20440;-47
2022/06/24 12:59:01;;;;;;;3.40;1.90;;;24.50;99.90;;;;;;5094284;28;20528;-51
2022/06/24 13:01:31;;;;;;;5.57;2.53;;;24.60;99.90;;;;;;5093804;28;20455;-46
2022/06/24 13:03:58;;;;;;;2.77;1.83;;;24.60;99.90;;;;;;5094537;28;20443;-47
2022/06/24 13:06:25;;;;;;;5.07;2.00;;;24.50;99.90;;;;;;5094046;28;20508;-47
2022/06/24 13:08:52;;;;;;;3.90;2.00;;;24.60;99.90;;;;;;5093831;28;20928;-48